Terminal Aerodrome Forecast
Issued by NWS Key West, FL

Home | Current Version | Previous Version | Text Only | Print | Product List | Glossary On
Versions: 1 2 3 4 5 6 7 8 9 10 11 12 13 14 15 16 17
000
FTUS42 KKEY 252324
TAFEYW
TAF
KEYW 252324Z 2600/2624 VRB05KT P6SM VCSH SCT020 OVC200
      TEMPO 2600/2604 16015G20KT 4SM SHRA BKN020
     FM260400 19004KT P6SM SCT020 BKN200=

USA.gov is the U.S. government's official web portal to all federal, state and local government web resources and services.